createdAt,value
2018-07-19T00:00:22.491Z,100233.48
2018-07-19T00:05:26.215Z,100229.91
2018-07-19T00:10:29.988Z,100237.80
2018-07-19T00:15:33.676Z,100228.75
2018-07-19T00:20:38.863Z,100231.51
2018-07-19T00:25:42.786Z,100233.63
2018-07-19T00:30:46.494Z,100225.40
2018-07-19T00:35:50.656Z,100226.55
2018-07-19T00:40:54.958Z,100224.38
2018-07-19T00:45:58.681Z,100228.44
2018-07-19T00:51:02.315Z,100229.34
2018-07-19T00:56:06.204Z,100231.80
2018-07-19T01:01:09.930Z,100225.45
2018-07-19T01:06:13.910Z,100223.85
2018-07-19T01:11:17.717Z,100231.38
2018-07-19T01:16:22.232Z,100226.25
2018-07-19T01:21:26.407Z,100218.47
2018-07-19T01:26:30.140Z,100213.45
2018-07-19T01:31:33.898Z,100221.58
2018-07-19T01:36:37.661Z,100219.86
2018-07-19T01:42:47.492Z,100212.12
2018-07-19T01:47:51.213Z,100205.50
2018-07-19T01:52:55.044Z,100205.28
2018-07-19T01:57:58.859Z,100213.16
2018-07-19T02:03:02.740Z,100218.36
2018-07-19T02:08:06.464Z,100218.26
2018-07-19T02:13:10.237Z,100218.50
2018-07-19T02:18:14.594Z,100219.14
2018-07-19T02:23:18.358Z,100215.83
2018-07-19T02:28:22.158Z,100221.88
2018-07-19T02:33:25.891Z,100224.09
2018-07-19T02:38:29.643Z,100230.14
2018-07-19T02:43:33.286Z,100222.63
2018-07-19T02:48:37.140Z,100230.53
2018-07-19T02:53:40.824Z,100231.62
2018-07-19T02:58:44.647Z,100234.47
2018-07-19T03:03:48.502Z,100241.64
2018-07-19T03:08:52.444Z,100248.59
2018-07-19T03:13:56.256Z,100243.70
2018-07-19T03:19:00.107Z,100242.49
2018-07-19T03:24:03.917Z,100242.51
2018-07-19T03:29:07.827Z,100242.75
2018-07-19T03:34:11.689Z,100251.14
2018-07-19T03:39:15.461Z,100257.45
2018-07-19T03:44:19.211Z,100256.61
2018-07-19T03:49:22.907Z,100264.62
2018-07-19T03:54:26.629Z,100265.77
2018-07-19T03:59:30.373Z,100269.61
2018-07-19T04:04:34.100Z,100275.78
2018-07-19T04:09:37.791Z,100283.87
2018-07-19T04:14:41.655Z,100284.77
2018-07-19T04:19:45.377Z,100280.66
2018-07-19T04:24:49.158Z,100285.84
2018-07-19T04:29:52.955Z,100283.57
2018-07-19T04:34:56.673Z,100295.13
2018-07-19T04:40:00.476Z,100292.84
2018-07-19T04:45:06.242Z,100291.49
2018-07-19T04:50:09.954Z,100300.50
2018-07-19T04:55:13.773Z,100289.38
2018-07-19T05:00:17.963Z,100295.83
2018-07-19T05:05:22.876Z,100301.23
2018-07-19T05:10:26.590Z,100293.55
2018-07-19T05:15:30.252Z,100301.63
2018-07-19T05:20:33.937Z,100302.97
2018-07-19T05:25:37.586Z,100302.30
2018-07-19T05:30:41.542Z,100296.72
2018-07-19T05:35:45.326Z,100294.53
2018-07-19T05:40:49.034Z,100296.95
2018-07-19T05:45:52.658Z,100296.09
2018-07-19T05:50:56.475Z,100302.52
2018-07-19T05:56:00.868Z,100301.58
2018-07-19T06:01:04.611Z,100294.45
2018-07-19T06:06:08.377Z,100297.17
2018-07-19T06:11:12.204Z,100295.27
2018-07-19T06:16:15.941Z,100300.39
2018-07-19T06:21:20.544Z,100295.98
2018-07-19T06:26:24.178Z,100289.39
2018-07-19T06:31:28.001Z,100290.94
2018-07-19T06:36:31.646Z,100296.34
2018-07-19T06:41:35.425Z,100295.63
2018-07-19T06:46:39.160Z,100294.12
2018-07-19T06:51:42.895Z,100290.53
2018-07-19T06:56:46.706Z,100282.77
2018-07-19T07:01:50.459Z,100289.91
2018-07-19T07:06:54.190Z,100291.67
2018-07-19T07:11:57.845Z,100296.38
2018-07-19T07:17:01.524Z,100289.78
2018-07-19T07:22:05.281Z,100286.98
2018-07-19T07:27:09.044Z,100286.23
2018-07-19T07:32:12.789Z,100290.61
2018-07-19T07:37:16.730Z,100289.58
2018-07-19T07:42:20.479Z,100284.45
2018-07-19T07:47:24.235Z,100300.67
2018-07-19T07:52:28.009Z,100291.49
2018-07-19T07:57:31.805Z,100297.91
2018-07-19T08:02:35.697Z,100292.11
2018-07-19T08:07:39.391Z,100302.23
2018-07-19T08:12:43.183Z,100295.54
2018-07-19T08:17:46.956Z,100296.65
2018-07-19T08:22:50.662Z,100291.13
2018-07-19T08:27:54.387Z,100284.39
2018-07-19T08:32:58.198Z,100281.41
2018-07-19T08:38:01.910Z,100282.72
2018-07-19T08:43:05.654Z,100281.28
2018-07-19T08:48:09.354Z,100286.98
2018-07-19T08:53:13.038Z,100284.45
2018-07-19T08:58:16.771Z,100273.94
2018-07-19T09:03:21.289Z,100280.71
2018-07-19T09:08:25.050Z,100268.00
2018-07-19T09:13:28.698Z,100280.83
2018-07-19T09:18:32.380Z,100279.66
2018-07-19T09:23:36.082Z,100271.23
2018-07-19T09:28:39.751Z,100271.50
2018-07-19T09:33:43.440Z,100260.11
2018-07-19T09:38:47.191Z,100269.14
2018-07-19T09:43:51.068Z,100265.73
2018-07-19T09:48:54.732Z,100258.67
2018-07-19T09:53:58.418Z,100270.87
2018-07-19T09:59:02.160Z,100268.86
2018-07-19T10:04:05.846Z,100263.84
2018-07-19T10:09:09.566Z,100265.95
2018-07-19T10:14:13.310Z,100278.71
2018-07-19T10:19:17.063Z,100273.21
2018-07-19T10:24:20.831Z,100271.61
2018-07-19T10:29:25.181Z,100267.41
2018-07-19T10:34:28.903Z,100268.33
2018-07-19T10:39:32.577Z,100264.77
2018-07-19T10:44:36.314Z,100263.05
2018-07-19T10:49:40.049Z,100262.20
2018-07-19T10:54:43.826Z,100252.61
2018-07-19T10:59:47.599Z,100263.06
2018-07-19T11:04:51.382Z,100252.25
2018-07-19T11:09:55.085Z,100253.37
2018-07-19T11:14:58.697Z,100247.19
2018-07-19T11:20:05.376Z,100249.03
2018-07-19T11:25:09.075Z,100244.47
2018-07-19T11:30:12.869Z,100236.62
2018-07-19T11:35:16.599Z,100229.09
2018-07-19T11:40:20.258Z,100237.13
2018-07-19T11:45:24.186Z,100237.84
2018-07-19T11:50:27.883Z,100224.32
2018-07-19T11:55:31.623Z,100228.84
2018-07-19T12:00:35.271Z,100227.25
2018-07-19T12:05:38.946Z,100228.61
2018-07-19T12:10:42.674Z,100225.25
2018-07-19T12:15:46.318Z,100216.98
2018-07-19T12:20:49.988Z,100213.69
2018-07-19T12:25:53.754Z,100216.00
2018-07-19T12:30:57.422Z,100207.30
2018-07-19T12:36:01.134Z,100203.28
2018-07-19T12:41:04.823Z,100201.82
2018-07-19T12:46:08.514Z,100201.19
2018-07-19T12:51:12.219Z,100195.55
2018-07-19T12:56:15.991Z,100200.30
2018-07-19T13:01:19.686Z,100195.63
2018-07-19T13:06:23.406Z,100196.71
2018-07-19T13:11:27.110Z,100193.51
2018-07-19T13:16:30.914Z,100188.80
2018-07-19T13:21:34.618Z,100184.36
2018-07-19T13:26:38.429Z,100178.55
2018-07-19T13:31:42.075Z,100177.55
2018-07-19T13:36:45.875Z,100181.73
2018-07-19T13:41:49.471Z,100178.55
2018-07-19T13:46:53.069Z,100168.19
2018-07-19T13:51:56.842Z,100165.87
2018-07-19T13:57:00.603Z,100162.30
2018-07-19T14:02:04.311Z,100166.48
2018-07-19T14:07:07.985Z,100159.34
2018-07-19T14:12:11.819Z,100156.64
2018-07-19T14:17:15.509Z,100150.23
2018-07-19T14:22:19.196Z,100151.94
2018-07-19T14:27:22.818Z,100147.27
2018-07-19T14:32:26.450Z,100149.73
2018-07-19T14:37:30.175Z,100136.90
2018-07-19T14:42:35.139Z,100144.77
2018-07-19T14:47:39.301Z,100147.55
2018-07-19T14:52:43.394Z,100135.70
2018-07-19T14:57:47.240Z,100133.02
2018-07-19T15:02:50.951Z,100133.72
2018-07-19T15:07:55.357Z,100128.75
2018-07-19T15:12:59.328Z,100133.62
2018-07-19T15:18:03.030Z,100117.72
2018-07-19T15:23:06.867Z,100113.25
2018-07-19T15:28:10.577Z,100108.27
2018-07-19T15:33:16.336Z,100104.16
2018-07-19T15:38:20.895Z,100109.11
2018-07-19T15:43:25.405Z,100107.14
2018-07-19T15:48:29.322Z,100100.74
2018-07-19T15:53:33.691Z,100085.11
2018-07-19T15:58:37.567Z,100082.05
2018-07-19T16:03:41.435Z,100078.91
2018-07-19T16:08:45.147Z,100079.00
2018-07-19T16:13:49.142Z,100073.08
2018-07-19T16:18:52.953Z,100080.09
2018-07-19T16:23:56.653Z,100074.44
2018-07-19T16:29:00.385Z,100078.08
2018-07-19T16:34:04.183Z,100071.06
2018-07-19T16:39:09.571Z,100074.63
2018-07-19T16:44:13.741Z,100075.14
2018-07-19T16:49:17.569Z,100072.56
2018-07-19T16:54:21.244Z,100067.65
2018-07-19T16:59:24.975Z,100065.08
2018-07-19T17:04:28.777Z,100071.48
2018-07-19T17:09:32.570Z,100069.27
2018-07-19T17:14:36.287Z,100064.33
2018-07-19T17:19:39.918Z,100068.16
2018-07-19T17:24:43.643Z,100069.34
2018-07-19T17:29:47.546Z,100068.77
2018-07-19T17:34:51.287Z,100067.81
2018-07-19T17:39:55.053Z,100065.97
2018-07-19T17:44:58.863Z,100064.33
2018-07-19T17:50:04.242Z,100066.54
2018-07-19T17:55:08.286Z,100068.58
2018-07-19T18:00:11.956Z,100065.60
2018-07-19T18:05:15.776Z,100061.88
2018-07-19T18:10:19.478Z,100062.38
2018-07-19T18:15:23.358Z,100067.91
2018-07-19T18:20:27.049Z,100065.45
2018-07-19T18:25:30.737Z,100067.63
2018-07-19T18:30:34.382Z,100077.48
2018-07-19T18:35:37.989Z,100076.67
2018-07-19T18:40:41.738Z,100086.95
2018-07-19T18:45:45.503Z,100085.48
2018-07-19T18:50:49.232Z,100075.70
2018-07-19T18:55:52.983Z,100078.92
2018-07-19T19:00:56.728Z,100087.10
2018-07-19T19:06:00.495Z,100086.33
2018-07-19T19:11:04.165Z,100086.73
2018-07-19T19:16:08.147Z,100093.08
2018-07-19T19:21:11.883Z,100093.74
2018-07-19T19:26:15.566Z,100099.45
2018-07-19T19:31:19.300Z,100100.45
2018-07-19T19:36:22.983Z,100106.66
2018-07-19T19:41:26.820Z,100115.30
2018-07-19T19:46:30.554Z,100130.53
2018-07-19T19:51:34.322Z,100118.55
2018-07-19T19:56:37.946Z,100114.91
2018-07-19T20:01:41.729Z,100119.78
2018-07-19T20:06:45.417Z,100127.27
2018-07-19T20:11:49.076Z,100127.92
2018-07-19T20:16:52.735Z,100128.34
2018-07-19T20:21:56.414Z,100127.19
2018-07-19T20:27:00.123Z,100135.26
2018-07-19T20:32:03.766Z,100141.55
2018-07-19T20:37:07.446Z,100145.17
2018-07-19T20:42:11.079Z,100154.18
2018-07-19T20:47:15.117Z,100155.86
2018-07-19T20:52:18.824Z,100152.82
2018-07-19T20:57:22.528Z,100145.11
2018-07-19T21:02:26.316Z,100150.40
2018-07-19T21:07:30.014Z,100154.73
2018-07-19T21:12:33.711Z,100161.02
2018-07-19T21:17:37.402Z,100157.03
2018-07-19T21:22:41.171Z,100158.30
2018-07-19T21:27:44.894Z,100161.19
2018-07-19T21:32:48.582Z,100160.03
2018-07-19T21:37:52.295Z,100150.77
2018-07-19T21:42:55.923Z,100156.08
2018-07-19T21:47:59.582Z,100149.69
2018-07-19T21:53:03.309Z,100153.40
2018-07-19T21:58:07.066Z,100157.18
2018-07-19T22:03:10.806Z,100161.45
2018-07-19T22:08:14.511Z,100165.41
2018-07-19T22:13:18.154Z,100155.17
2018-07-19T22:18:22.689Z,100154.12
2018-07-19T22:23:26.442Z,100159.39
2018-07-19T22:28:30.115Z,100154.73
2018-07-19T22:33:33.850Z,100161.75
2018-07-19T22:38:37.700Z,100165.59
2018-07-19T22:43:41.414Z,100171.88
2018-07-19T22:48:45.090Z,100173.88
2018-07-19T22:53:49.602Z,100177.74
2018-07-19T22:58:53.302Z,100180.66
2018-07-19T23:03:57.025Z,100184.38
2018-07-19T23:09:00.670Z,100179.45
2018-07-19T23:14:04.306Z,100185.23
2018-07-19T23:19:07.958Z,100189.09
2018-07-19T23:24:11.677Z,100190.56
2018-07-19T23:29:15.594Z,100192.78
2018-07-19T23:34:19.379Z,100189.36
2018-07-19T23:39:27.601Z,100184.79
2018-07-19T23:44:34.905Z,100185.70
2018-07-19T23:49:38.551Z,100183.73
2018-07-19T23:54:42.290Z,100183.08
2018-07-19T23:59:45.982Z,100184.34
